createdAt,value
2022-12-11T00:00:12.605Z,45.54
2022-12-11T00:03:16.428Z,45.55
2022-12-11T00:06:22.479Z,45.65
2022-12-11T00:09:25.482Z,45.71
2022-12-11T00:12:28.418Z,45.84
2022-12-11T00:15:33.130Z,45.83
2022-12-11T00:18:36.167Z,45.96
2022-12-11T00:21:39.459Z,46.06
2022-12-11T00:24:42.534Z,46.04
2022-12-11T00:27:47.721Z,46.09
2022-12-11T00:30:52.046Z,46.05
2022-12-11T00:33:55.032Z,46.18
2022-12-11T00:36:59.233Z,46.33
2022-12-11T00:40:02.345Z,46.26
2022-12-11T00:43:05.639Z,46.45
2022-12-11T00:46:10.406Z,46.42
2022-12-11T00:49:13.401Z,46.28
2022-12-11T00:52:17.965Z,46.38
2022-12-11T00:55:21.130Z,46.46
2022-12-11T00:58:24.355Z,46.60
2022-12-11T01:01:29.393Z,46.73
2022-12-11T01:04:32.441Z,46.46
2022-12-11T01:07:35.415Z,46.48
2022-12-11T01:10:38.392Z,46.58
2022-12-11T01:13:42.518Z,46.50
2022-12-11T01:16:47.000Z,46.63
2022-12-11T01:19:49.976Z,46.40
2022-12-11T01:22:53.816Z,46.55
2022-12-11T01:25:56.881Z,46.64
2022-12-11T01:29:00.184Z,46.64
2022-12-11T01:32:04.908Z,46.64
2022-12-11T01:35:09.582Z,46.66
2022-12-11T01:38:12.747Z,46.82
2022-12-11T01:41:16.414Z,46.69
2022-12-11T01:44:56.887Z,46.73
2022-12-11T01:48:09.532Z,46.77
2022-12-11T01:51:12.534Z,46.91
2022-12-11T01:54:17.211Z,46.93
2022-12-11T01:57:20.241Z,46.84
2022-12-11T02:00:23.602Z,47.00
2022-12-11T02:03:28.115Z,47.19
2022-12-11T02:06:38.465Z,46.99
2022-12-11T02:09:43.630Z,47.12
2022-12-11T02:12:58.719Z,47.09
2022-12-11T02:16:10.955Z,47.00
2022-12-11T02:19:30.175Z,47.20
2022-12-11T02:22:55.308Z,47.13
2022-12-11T02:26:12.117Z,47.23
2022-12-11T02:29:22.173Z,47.19
2022-12-11T02:32:28.587Z,47.08
2022-12-11T02:35:36.196Z,47.22
2022-12-11T02:38:42.166Z,47.24
2022-12-11T02:41:50.983Z,47.18
2022-12-11T02:44:57.940Z,47.16
2022-12-11T02:48:04.313Z,47.11
2022-12-11T02:51:10.059Z,47.04
2022-12-11T02:54:18.086Z,47.05
2022-12-11T02:57:29.156Z,47.05
2022-12-11T03:00:34.011Z,47.11
2022-12-11T03:03:37.114Z,47.03
2022-12-11T03:06:45.099Z,47.07
2022-12-11T03:09:49.339Z,47.09
2022-12-11T03:12:56.652Z,47.13
2022-12-11T03:16:12.552Z,47.05
2022-12-11T03:19:25.326Z,47.25
2022-12-11T03:22:35.075Z,47.19
2022-12-11T03:25:47.895Z,47.16
2022-12-11T03:28:56.046Z,47.22
2022-12-11T03:32:06.362Z,47.19
2022-12-11T03:35:14.797Z,47.14
2022-12-11T03:38:22.894Z,47.19
2022-12-11T03:41:28.105Z,47.15
2022-12-11T03:44:32.859Z,47.14
2022-12-11T03:47:39.906Z,47.28
2022-12-11T03:50:43.622Z,47.35
2022-12-11T03:53:48.527Z,47.13
2022-12-11T03:56:55.055Z,47.39
2022-12-11T03:59:58.415Z,47.37
2022-12-11T04:03:15.859Z,47.29
2022-12-11T04:06:18.955Z,47.41
2022-12-11T04:09:21.971Z,47.26
2022-12-11T04:12:25.174Z,47.20
2022-12-11T04:15:28.156Z,47.19
2022-12-11T04:18:50.287Z,47.19
2022-12-11T04:22:10.498Z,47.20
2022-12-11T04:25:13.736Z,47.37
2022-12-11T04:28:17.047Z,47.25
2022-12-11T04:31:22.417Z,47.35
2022-12-11T04:34:26.953Z,47.42
2022-12-11T04:37:30.220Z,47.40
2022-12-11T04:40:33.271Z,47.41
2022-12-11T04:43:36.517Z,47.40
2022-12-11T04:46:39.527Z,47.52
2022-12-11T04:49:43.938Z,47.52
2022-12-11T04:52:46.916Z,47.44
2022-12-11T04:55:49.935Z,47.45
2022-12-11T04:58:52.919Z,47.53
2022-12-11T05:01:55.955Z,47.48
2022-12-11T05:05:00.346Z,47.46
2022-12-11T05:08:03.372Z,47.37
2022-12-11T05:11:08.043Z,47.49
2022-12-11T05:14:11.056Z,47.54
2022-12-11T05:17:14.016Z,47.54
2022-12-11T05:20:19.543Z,47.48
2022-12-11T05:23:22.612Z,47.47
2022-12-11T05:26:25.613Z,47.50
2022-12-11T05:29:28.531Z,47.50
2022-12-11T05:32:31.483Z,47.37
2022-12-11T05:35:35.887Z,47.45
2022-12-11T05:38:38.862Z,47.47
2022-12-11T05:41:41.886Z,47.27
2022-12-11T05:44:44.841Z,47.33
2022-12-11T05:47:47.782Z,47.35
2022-12-11T05:51:03.077Z,47.40
2022-12-11T05:54:06.316Z,47.54
2022-12-11T05:57:09.700Z,47.52
2022-12-11T06:00:13.843Z,47.49
2022-12-11T06:03:16.847Z,47.61
2022-12-11T06:06:22.035Z,47.42
2022-12-11T06:09:24.979Z,47.47
2022-12-11T06:12:28.424Z,47.55
2022-12-11T06:15:31.398Z,47.57
2022-12-11T06:18:37.467Z,47.52
2022-12-11T06:21:42.406Z,47.59
2022-12-11T06:24:45.418Z,47.57
2022-12-11T06:27:48.346Z,47.67
2022-12-11T06:30:51.278Z,47.83
2022-12-11T06:33:54.297Z,47.86
2022-12-11T06:36:58.808Z,47.73
2022-12-11T06:40:01.853Z,47.73
2022-12-11T06:43:04.787Z,47.72
2022-12-11T06:46:09.597Z,47.72
2022-12-11T06:49:12.582Z,47.72
2022-12-11T06:52:18.649Z,47.73
2022-12-11T06:55:22.076Z,47.69
2022-12-11T06:58:25.041Z,47.55
2022-12-11T07:01:29.436Z,47.45
2022-12-11T07:04:32.468Z,47.56
2022-12-11T07:07:36.762Z,47.46
2022-12-11T07:10:40.427Z,47.42
2022-12-11T07:13:44.216Z,47.50
2022-12-11T07:16:47.620Z,47.47
2022-12-11T07:19:50.555Z,47.30
2022-12-11T07:22:55.439Z,47.43
2022-12-11T07:25:58.778Z,47.38
2022-12-11T07:29:02.154Z,47.40
2022-12-11T07:32:05.443Z,47.40
2022-12-11T07:35:09.497Z,47.45
2022-12-11T07:38:14.370Z,47.54
2022-12-11T07:41:18.746Z,47.44
2022-12-11T07:44:29.099Z,47.52
2022-12-11T07:47:32.121Z,47.53
2022-12-11T07:50:39.610Z,47.63
2022-12-11T07:53:49.421Z,47.77
2022-12-11T07:56:53.953Z,47.61
2022-12-11T07:59:57.070Z,47.60
2022-12-11T08:03:00.026Z,47.71
2022-12-11T08:06:03.119Z,47.65
2022-12-11T08:09:09.414Z,47.84
2022-12-11T08:12:12.497Z,47.94
2022-12-11T08:15:15.500Z,47.89
2022-12-11T08:18:18.525Z,47.94
2022-12-11T08:21:23.854Z,47.99
2022-12-11T08:24:28.258Z,48.00
2022-12-11T08:27:31.638Z,48.01
2022-12-11T08:30:34.780Z,48.12
2022-12-11T08:33:38.877Z,47.93
2022-12-11T08:36:42.443Z,47.83
2022-12-11T08:39:47.033Z,47.93
2022-12-11T08:42:50.144Z,47.89
2022-12-11T08:45:53.249Z,47.69
2022-12-11T08:48:56.780Z,47.72
2022-12-11T08:51:59.740Z,47.60
2022-12-11T08:55:04.469Z,47.60
2022-12-11T08:58:07.452Z,47.73
2022-12-11T09:01:12.616Z,47.60
2022-12-11T09:04:15.926Z,47.68
2022-12-11T09:07:18.902Z,47.62
2022-12-11T09:10:23.438Z,47.35
2022-12-11T09:13:26.382Z,47.26
2022-12-11T09:16:30.458Z,47.39
2022-12-11T09:19:33.473Z,42.52
2022-12-11T09:22:36.507Z,40.94
2022-12-11T09:25:42.743Z,42.84
2022-12-11T09:28:47.251Z,40.68
2022-12-11T09:31:50.479Z,40.83
2022-12-11T09:34:53.589Z,41.05
2022-12-11T09:37:56.606Z,41.49
2022-12-11T09:41:01.578Z,41.69
2022-12-11T09:44:17.505Z,41.96
2022-12-11T09:47:28.739Z,42.06
2022-12-11T09:50:34.993Z,42.21
2022-12-11T09:53:38.376Z,42.40
2022-12-11T09:56:46.746Z,42.50
2022-12-11T10:00:05.651Z,42.70
2022-12-11T10:03:35.938Z,42.77
2022-12-11T10:06:45.015Z,42.97
2022-12-11T10:09:52.821Z,43.15
2022-12-11T10:13:06.663Z,43.55
2022-12-11T10:16:20.231Z,43.94
2022-12-11T10:19:27.768Z,44.05
2022-12-11T10:22:33.979Z,44.18
2022-12-11T10:25:38.943Z,44.45
2022-12-11T10:28:43.449Z,45.02
2022-12-11T10:31:52.149Z,45.08
2022-12-11T10:35:00.580Z,45.28
2022-12-11T10:38:14.557Z,45.94
2022-12-11T10:41:21.321Z,45.98
2022-12-11T10:44:27.863Z,46.62
2022-12-11T10:47:33.365Z,46.73
2022-12-11T10:50:36.812Z,46.52
2022-12-11T10:53:40.458Z,46.68
2022-12-11T10:56:48.073Z,46.32
2022-12-11T10:59:52.456Z,46.30
2022-12-11T11:02:56.568Z,46.25
2022-12-11T11:06:15.406Z,46.45
2022-12-11T11:09:31.454Z,46.39
2022-12-11T11:12:39.317Z,46.42
2022-12-11T11:15:45.523Z,46.45
2022-12-11T11:18:55.021Z,46.74
2022-12-11T11:22:01.364Z,46.91
2022-12-11T11:25:05.256Z,46.97
2022-12-11T11:28:17.894Z,46.73
2022-12-11T11:31:31.519Z,46.70
2022-12-11T11:34:34.555Z,46.30
2022-12-11T11:37:38.574Z,46.45
2022-12-11T11:40:45.702Z,46.38
2022-12-11T11:43:52.266Z,46.35
2022-12-11T11:47:02.094Z,46.13
2022-12-11T11:50:09.533Z,46.15
2022-12-11T11:53:20.278Z,46.00
2022-12-11T11:56:26.980Z,45.99
2022-12-11T11:59:34.675Z,45.87
2022-12-11T12:02:39.228Z,45.98
2022-12-11T12:05:51.128Z,45.81
2022-12-11T12:09:03.611Z,45.80
2022-12-11T12:12:22.814Z,45.77
2022-12-11T12:15:37.649Z,45.74
2022-12-11T12:18:53.651Z,45.79
2022-12-11T12:21:56.856Z,45.75
2022-12-11T12:25:08.483Z,45.78
2022-12-11T12:28:27.578Z,45.77
2022-12-11T12:31:48.117Z,45.84
2022-12-11T12:35:04.433Z,45.92
2022-12-11T12:38:15.288Z,45.81
2022-12-11T12:41:23.480Z,46.02
2022-12-11T12:44:28.283Z,46.14
2022-12-11T12:47:36.160Z,46.19
2022-12-11T12:50:46.123Z,46.28
2022-12-11T12:53:53.559Z,46.21
2022-12-11T12:56:57.660Z,46.34
2022-12-11T13:00:00.586Z,46.33
2022-12-11T13:03:14.386Z,46.36
2022-12-11T13:06:30.743Z,46.48
2022-12-11T13:09:33.769Z,46.29
2022-12-11T13:12:44.968Z,46.38
2022-12-11T13:18:51.282Z,46.40
2022-12-11T13:22:00.942Z,46.40
2022-12-11T13:25:22.110Z,46.53
2022-12-11T13:28:31.618Z,46.54
2022-12-11T13:31:37.506Z,46.44
2022-12-11T13:34:43.177Z,46.60
2022-12-11T13:37:50.786Z,46.57
2022-12-11T13:40:57.702Z,46.38
2022-12-11T13:44:01.221Z,46.45
2022-12-11T13:47:05.994Z,46.35
2022-12-11T13:50:17.210Z,46.32
2022-12-11T13:53:22.468Z,46.21
2022-12-11T13:56:25.833Z,46.17
2022-12-11T13:59:31.406Z,46.14
2022-12-11T14:02:36.620Z,46.11
2022-12-11T14:05:42.746Z,46.06
2022-12-11T14:08:51.063Z,46.06
2022-12-11T14:11:57.252Z,46.19
2022-12-11T14:15:03.232Z,46.19
2022-12-11T14:18:07.041Z,46.08
2022-12-11T14:21:20.926Z,46.15
2022-12-11T14:24:25.530Z,46.26
2022-12-11T14:27:29.181Z,46.17
2022-12-11T14:30:37.159Z,46.39
2022-12-11T14:33:44.374Z,46.41
2022-12-11T14:36:49.006Z,46.44
2022-12-11T14:39:58.870Z,46.40
2022-12-11T14:43:08.686Z,46.39
2022-12-11T14:46:18.278Z,46.42
2022-12-11T14:49:26.774Z,46.71
2022-12-11T14:52:34.662Z,46.67
2022-12-11T14:55:41.134Z,46.65
2022-12-11T14:58:49.226Z,46.59
2022-12-11T15:02:00.273Z,46.65
2022-12-11T15:05:18.168Z,46.62
2022-12-11T15:08:25.434Z,46.69
2022-12-11T15:11:33.114Z,46.70
2022-12-11T15:14:36.123Z,46.65
2022-12-11T15:17:39.133Z,46.86
2022-12-11T15:20:42.192Z,46.67
2022-12-11T15:23:52.680Z,46.55
2022-12-11T15:27:01.343Z,46.57
2022-12-11T15:30:16.280Z,45.90
2022-12-11T15:33:22.287Z,45.78
2022-12-11T15:36:27.867Z,46.30
2022-12-11T15:39:31.102Z,46.58
2022-12-11T15:42:39.068Z,46.66
2022-12-11T15:45:43.435Z,46.78
2022-12-11T15:48:46.882Z,46.90
2022-12-11T15:51:49.878Z,46.81
2022-12-11T15:54:52.976Z,46.49
2022-12-11T15:58:00.614Z,46.28
2022-12-11T16:01:04.125Z,46.28
2022-12-11T16:04:08.472Z,46.30
2022-12-11T16:07:17.783Z,46.38
2022-12-11T16:10:22.800Z,46.52
2022-12-11T16:13:27.518Z,46.97
2022-12-11T16:16:30.494Z,46.97
2022-12-11T16:19:33.650Z,46.93
2022-12-11T16:22:36.983Z,47.07
2022-12-11T16:25:41.458Z,47.26
2022-12-11T16:28:45.762Z,47.51
2022-12-11T16:31:48.819Z,47.66
2022-12-11T16:34:51.761Z,47.55
2022-12-11T16:37:55.559Z,47.74
2022-12-11T16:41:02.134Z,47.56
2022-12-11T16:44:06.822Z,47.49
2022-12-11T16:47:09.819Z,47.56
2022-12-11T16:50:15.201Z,47.51
2022-12-11T16:53:18.216Z,47.74
2022-12-11T16:56:21.181Z,47.84
2022-12-11T16:59:25.586Z,47.79
2022-12-11T17:02:28.630Z,47.73
2022-12-11T17:05:31.654Z,47.70
2022-12-11T17:08:34.689Z,47.80
2022-12-11T17:11:37.729Z,47.71
2022-12-11T17:14:42.175Z,47.67
2022-12-11T17:17:45.221Z,47.66
2022-12-11T17:20:48.210Z,47.52
2022-12-11T17:23:51.640Z,47.52
2022-12-11T17:26:56.227Z,47.51
2022-12-11T17:30:00.989Z,47.58
2022-12-11T17:33:04.582Z,47.52
2022-12-11T17:36:08.811Z,47.52
2022-12-11T17:39:11.870Z,47.33
2022-12-11T17:42:14.926Z,47.17
2022-12-11T17:45:19.565Z,47.28
2022-12-11T17:48:23.157Z,47.20
2022-12-11T17:51:26.161Z,47.14
2022-12-11T17:54:29.497Z,47.19
2022-12-11T17:57:32.718Z,47.17
2022-12-11T18:00:39.367Z,47.15
2022-12-11T18:03:43.470Z,47.08
2022-12-11T18:06:46.952Z,47.15
2022-12-11T18:09:50.069Z,47.26
2022-12-11T18:12:53.125Z,47.32
2022-12-11T18:16:03.598Z,47.40
2022-12-11T18:19:08.353Z,47.76
2022-12-11T18:22:11.399Z,47.86
2022-12-11T18:25:14.615Z,47.93
2022-12-11T18:28:18.190Z,48.22
2022-12-11T18:31:24.054Z,48.18
2022-12-11T18:34:27.740Z,48.33
2022-12-11T18:37:31.686Z,48.21
2022-12-11T18:40:34.734Z,48.20
2022-12-11T18:43:38.518Z,48.34
2022-12-11T18:46:42.992Z,48.35
2022-12-11T18:49:46.286Z,48.45
2022-12-11T18:52:53.211Z,48.63
2022-12-11T18:56:00.376Z,48.89
2022-12-11T18:59:04.684Z,49.08
2022-12-11T19:02:09.175Z,49.04
2022-12-11T19:05:13.513Z,48.94
2022-12-11T19:08:16.978Z,48.99
2022-12-11T19:11:23.422Z,49.08
2022-12-11T19:14:26.434Z,49.06
2022-12-11T19:17:30.759Z,48.94
2022-12-11T19:20:58.022Z,48.94
2022-12-11T19:24:02.789Z,49.03
2022-12-11T19:27:11.702Z,48.89
2022-12-11T19:30:16.549Z,49.15
2022-12-11T19:33:23.484Z,49.12
2022-12-11T19:36:28.487Z,49.22
2022-12-11T19:39:31.542Z,49.28
2022-12-11T19:42:34.545Z,49.07
2022-12-11T19:45:38.073Z,49.03
2022-12-11T19:48:42.638Z,49.11
2022-12-11T19:51:45.722Z,48.89
2022-12-11T19:54:48.713Z,48.93
2022-12-11T19:57:51.705Z,48.79
2022-12-11T20:00:55.032Z,48.84
2022-12-11T20:04:02.143Z,48.73
2022-12-11T20:07:05.372Z,48.62
2022-12-11T20:10:09.351Z,48.23
2022-12-11T20:13:12.408Z,47.79
2022-12-11T20:16:16.565Z,46.65
2022-12-11T20:19:21.115Z,46.11
2022-12-11T20:22:24.232Z,45.93
2022-12-11T20:25:28.108Z,45.58
2022-12-11T20:28:31.186Z,45.47
2022-12-11T20:31:34.471Z,45.71
2022-12-11T20:34:39.005Z,45.74
2022-12-11T20:37:42.033Z,45.76
2022-12-11T20:40:47.390Z,45.99
2022-12-11T20:43:50.990Z,45.98
2022-12-11T20:46:54.085Z,46.02
2022-12-11T20:49:58.675Z,45.93
2022-12-11T20:53:01.750Z,46.13
2022-12-11T20:56:10.663Z,46.04
2022-12-11T20:59:14.521Z,46.14
2022-12-11T21:02:17.626Z,46.46
2022-12-11T21:05:22.343Z,46.47
2022-12-11T21:08:25.403Z,46.58
2022-12-11T21:11:29.149Z,46.68
2022-12-11T21:14:32.564Z,46.64
2022-12-11T21:17:36.062Z,46.79
2022-12-11T21:20:40.369Z,46.94
2022-12-11T21:23:43.435Z,46.94
2022-12-11T21:26:46.686Z,47.13
2022-12-11T21:29:49.947Z,47.14
2022-12-11T21:32:53.874Z,47.13
2022-12-11T21:35:59.113Z,47.25
2022-12-11T21:39:03.033Z,47.16
2022-12-11T21:42:06.174Z,47.36
2022-12-11T21:48:32.918Z,47.32
2022-12-11T21:51:42.648Z,47.46
2022-12-11T21:54:49.262Z,47.53
2022-12-11T21:57:52.298Z,47.38
2022-12-11T22:00:55.409Z,47.41
2022-12-11T22:03:59.686Z,47.40
2022-12-11T22:07:04.394Z,47.42
2022-12-11T22:10:08.622Z,47.37
2022-12-11T22:13:11.778Z,47.25
2022-12-11T22:16:15.231Z,47.22
2022-12-11T22:19:18.253Z,47.40
2022-12-11T22:22:22.718Z,47.36
2022-12-11T22:25:25.820Z,47.32
2022-12-11T22:28:28.967Z,47.54
2022-12-11T22:31:31.958Z,47.41
2022-12-11T22:34:35.028Z,47.31
2022-12-11T22:37:39.522Z,47.35
2022-12-11T22:40:43.295Z,47.20
2022-12-11T22:43:46.239Z,47.36
2022-12-11T22:46:50.678Z,47.22
2022-12-11T22:49:54.023Z,47.37
2022-12-11T22:52:58.654Z,47.40
2022-12-11T22:56:05.936Z,46.09
2022-12-11T22:59:08.993Z,44.87
2022-12-11T23:02:12.112Z,44.94
2022-12-11T23:05:15.156Z,44.60
2022-12-11T23:08:20.350Z,44.43
2022-12-11T23:11:25.900Z,44.72
2022-12-11T23:14:29.052Z,44.74
2022-12-11T23:17:32.191Z,44.71
2022-12-11T23:20:35.123Z,44.42
2022-12-11T23:23:39.659Z,44.64
2022-12-11T23:26:43.074Z,44.61
2022-12-11T23:29:46.420Z,44.65
2022-12-11T23:32:49.488Z,44.67
2022-12-11T23:35:52.421Z,44.82
2022-12-11T23:38:57.920Z,44.73
2022-12-11T23:42:00.881Z,44.69
2022-12-11T23:45:04.010Z,44.89
2022-12-11T23:48:07.084Z,44.94
2022-12-11T23:51:14.180Z,45.03
2022-12-11T23:54:18.558Z,45.14
2022-12-11T23:57:21.851Z,45.03
